Time;durP1;ratioP1;P1;durP2;ratioP2;P2;SDS_P1;SDS_P2;PMS_P1;PMS_P2;Temp;Humidity;BMP_temperature;BMP_pressure;BME280_temperature;BME280_humidity;BME280_pressure;Samples;Min_cycle;Max_cycle;Signal;HPM_P1;HPM_P2
2023/08/15 00:00:03;;;;;;;;;;;;;;;;;;2081640;28;19932;-80
2023/08/15 00:01:23;;;;;;;;;;;;;;;;;;2080788;28;19921;-80
2023/08/15 00:02:44;;;;;;;;;;;;;;;;;;2080906;28;19917;-80
2023/08/15 00:04:05;;;;;;;;;;;;;;;;;;2081537;28;19909;-80
2023/08/15 00:05:26;;;;;;;;;;;;;;;;;;2081037;28;19913;-79
2023/08/15 00:06:46;;;;;;;;;;;;;;;;;;2088666;28;19970;-81
2023/08/15 00:08:07;;;;;;;;;;;;;;;;;;2078887;28;19909;-81
2023/08/15 00:09:28;;;;;;;;;;;;;;;;;;2078826;28;19917;-81
2023/08/15 00:10:48;;;;;;;;;;;;;;;;;;2088619;28;19915;-80
2023/08/15 00:12:09;;;;;;;;;;;;;;;;;;2074784;28;19925;-80
2023/08/15 00:13:30;;;;;;;;;;;;;;;;;;2071147;28;19968;-79
2023/08/15 00:14:50;;;;;;;;;;;;;;;;;;2086375;28;19909;-80
2023/08/15 00:16:11;;;;;;;;;;;;;;;;;;2085056;28;19937;-80
2023/08/15 00:17:32;;;;;;;;;;;;;;;;;;2079696;28;19921;-80
2023/08/15 00:18:52;;;;;;;;;;;;;;;;;;2082510;28;19987;-81
2023/08/15 00:20:13;;;;;;;;;;;;;;;;;;2081732;28;19917;-81
2023/08/15 00:21:34;;;;;;;;;;;;;;;;;;2086415;28;19913;-79
2023/08/15 00:22:54;;;;;;;;;;;;;;;;;;2089662;28;19908;-80
2023/08/15 00:24:15;;;;;;;;;;;;;;;;;;2089749;28;19916;-81
2023/08/15 00:25:36;;;;;;;;;;;;;;;;;;2089257;28;19912;-80
2023/08/15 00:26:56;;;;;;;;;;;;;;;;;;2075925;28;19971;-79
2023/08/15 00:28:17;;;;;;;;;;;;;;;;;;2079271;28;19932;-81
2023/08/15 00:29:38;;;;;;;;;;;;;;;;;;2090254;28;20294;-80
2023/08/15 00:30:58;;;;;;;;;;;;;;;;;;2081272;28;19910;-80
2023/08/15 00:32:19;;;;;;;;;;;;;;;;;;2070361;28;19921;-80
2023/08/15 00:33:40;;;;;;;;;;;;;;;;;;2078113;28;19916;-81
2023/08/15 00:35:01;;;;;;;;;;;;;;;;;;2082601;28;20288;-81
2023/08/15 00:36:21;;;;;;;;;;;;;;;;;;2089430;28;19913;-81
2023/08/15 00:37:42;;;;;;;;;;;;;;;;;;2084148;28;19913;-79
2023/08/15 00:39:03;;;;;;;;;;;;;;;;;;2094965;28;19935;-80
2023/08/15 00:40:23;;;;;;;;;;;;;;;;;;2085316;28;19916;-80
2023/08/15 00:41:44;;;;;;;;;;;;;;;;;;2089638;28;19924;-80
2023/08/15 00:43:05;;;;;;;;;;;;;;;;;;2083878;28;19932;-80
2023/08/15 00:44:25;;;;;;;;;;;;;;;;;;2080828;28;19920;-81
2023/08/15 00:45:46;;;;;;;;;;;;;;;;;;2096983;28;20395;-80
2023/08/15 00:47:07;;;;;;;;;;;;;;;;;;2091558;28;20000;-80
2023/08/15 00:48:29;;;;;;;;;;;;;;;;;;2088500;28;19909;-79
2023/08/15 00:49:50;;;;;;;;;;;;;;;;;;2080988;28;20269;-80
2023/08/15 00:51:11;;;;;;;;;;;;;;;;;;2081904;28;19913;-80
2023/08/15 00:52:31;;;;;;;;;;;;;;;;;;2082730;28;19913;-78
2023/08/15 00:53:52;;;;;;;;;;;;;;;;;;2081387;28;19913;-80
2023/08/15 00:55:13;;;;;;;;;;;;;;;;;;2089396;28;20059;-79
2023/08/15 00:56:34;;;;;;;;;;;;;;;;;;2083019;28;20360;-80
2023/08/15 00:57:54;;;;;;;;;;;;;;;;;;2102871;28;19912;-80
2023/08/15 00:59:15;;;;;;;;;;;;;;;;;;2097094;28;19962;-79
2023/08/15 01:00:36;;;;;;;;;;;;;;;;;;2102532;28;19912;-81
2023/08/15 01:01:56;;;;;;;;;;;;;;;;;;2090636;28;19921;-81
2023/08/15 01:03:17;;;;;;;;;;;;;;;;;;2088762;28;19963;-81
2023/08/15 01:04:38;;;;;;;;;;;;;;;;;;2089306;28;19909;-79
2023/08/15 01:05:58;;;;;;;;;;;;;;;;;;2095332;28;19920;-81
2023/08/15 01:07:19;;;;;;;;;;;;;;;;;;2103065;28;20295;-80
2023/08/15 01:08:40;;;;;;;;;;;;;;;;;;2106240;28;19908;-80
2023/08/15 01:10:01;;;;;;;;;;;;;;;;;;2106217;28;19979;-79
2023/08/15 01:11:21;;;;;;;;;;;;;;;;;;2105965;28;19915;-80
2023/08/15 01:12:42;;;;;;;;;;;;;;;;;;2090379;28;19916;-80
2023/08/15 01:14:03;;;;;;;;;;;;;;;;;;2082521;28;19916;-80
2023/08/15 01:15:26;;;;;;;;;;;;;;;;;;2087057;28;20304;-79
2023/08/15 01:16:48;;;;;;;;;;;;;;;;;;2090753;28;19913;-80
2023/08/15 01:18:09;;;;;;;;;;;;;;;;;;2090115;28;20225;-80
2023/08/15 01:19:30;;;;;;;;;;;;;;;;;;2082936;28;19916;-80
2023/08/15 01:20:50;;;;;;;;;;;;;;;;;;2088026;28;20256;-80
2023/08/15 01:22:11;;;;;;;;;;;;;;;;;;2090925;28;19928;-80
2023/08/15 01:23:32;;;;;;;;;;;;;;;;;;2098300;28;20398;-79
2023/08/15 01:24:52;;;;;;;;;;;;;;;;;;2092640;28;19909;-80
2023/08/15 01:26:13;;;;;;;;;;;;;;;;;;2090598;28;19916;-79
2023/08/15 01:27:34;;;;;;;;;;;;;;;;;;2097859;28;19960;-80
2023/08/15 01:28:55;;;;;;;;;;;;;;;;;;2093396;28;19931;-81
2023/08/15 01:30:15;;;;;;;;;;;;;;;;;;2082341;28;20289;-80
2023/08/15 01:31:36;;;;;;;;;;;;;;;;;;2089979;28;19916;-80
2023/08/15 01:32:57;;;;;;;;;;;;;;;;;;2099662;28;19916;-81
2023/08/15 01:34:17;;;;;;;;;;;;;;;;;;2100033;28;20340;-79
2023/08/15 01:35:38;;;;;;;;;;;;;;;;;;2099224;28;19913;-80
2023/08/15 01:36:59;;;;;;;;;;;;;;;;;;2090624;28;19917;-80
2023/08/15 01:38:19;;;;;;;;;;;;;;;;;;2096229;28;19908;-78
2023/08/15 01:39:40;;;;;;;;;;;;;;;;;;2090149;28;19912;-80
2023/08/15 01:41:01;;;;;;;;;;;;;;;;;;2095233;28;20284;-80
2023/08/15 01:42:21;;;;;;;;;;;;;;;;;;2098990;28;19978;-80
2023/08/15 01:43:42;;;;;;;;;;;;;;;;;;2097926;28;20364;-79
2023/08/15 01:45:03;;;;;;;;;;;;;;;;;;2099989;28;19908;-79
2023/08/15 01:46:23;;;;;;;;;;;;;;;;;;2090674;28;19909;-79
2023/08/15 01:47:44;;;;;;;;;;;;;;;;;;2090200;28;19935;-79
2023/08/15 01:49:05;;;;;;;;;;;;;;;;;;2093846;28;19908;-78
2023/08/15 01:50:26;;;;;;;;;;;;;;;;;;2094458;28;19908;-79
2023/08/15 01:51:46;;;;;;;;;;;;;;;;;;2101193;28;19927;-80
2023/08/15 01:53:07;;;;;;;;;;;;;;;;;;2106613;28;19908;-78
2023/08/15 01:54:28;;;;;;;;;;;;;;;;;;2098309;28;19936;-79
2023/08/15 01:55:48;;;;;;;;;;;;;;;;;;2105321;28;19920;-79
2023/08/15 01:57:09;;;;;;;;;;;;;;;;;;2098180;28;19921;-77
2023/08/15 01:58:30;;;;;;;;;;;;;;;;;;2086544;28;19909;-79
2023/08/15 01:59:51;;;;;;;;;;;;;;;;;;2081137;28;19970;-79
2023/08/15 02:01:12;;;;;;;;;;;;;;;;;;2095386;28;19912;-79
2023/08/15 02:02:33;;;;;;;;;;;;;;;;;;2092729;28;20385;-79
2023/08/15 02:03:53;;;;;;;;;;;;;;;;;;2081054;28;19964;-79
2023/08/15 02:05:14;;;;;;;;;;;;;;;;;;2096042;28;19909;-79
2023/08/15 02:06:35;;;;;;;;;;;;;;;;;;2092871;28;19909;-79
2023/08/15 02:07:55;;;;;;;;;;;;;;;;;;2091292;28;19916;-79
2023/08/15 02:09:16;;;;;;;;;;;;;;;;;;2090737;28;19947;-79
2023/08/15 02:10:37;;;;;;;;;;;;;;;;;;2084218;28;20295;-80
2023/08/15 02:11:58;;;;;;;;;;;;;;;;;;2093653;28;19917;-80
2023/08/15 02:13:18;;;;;;;;;;;;;;;;;;2087823;28;19908;-80
2023/08/15 02:14:39;;;;;;;;;;;;;;;;;;2089518;28;19931;-80
2023/08/15 02:16:00;;;;;;;;;;;;;;;;;;2096438;28;19908;-79
2023/08/15 02:17:20;;;;;;;;;;;;;;;;;;2098266;28;19908;-80
2023/08/15 02:18:41;;;;;;;;;;;;;;;;;;2097958;28;19912;-80
2023/08/15 02:20:02;;;;;;;;;;;;;;;;;;2098354;28;19913;-79
2023/08/15 02:21:22;;;;;;;;;;;;;;;;;;2103279;28;19919;-80
2023/08/15 02:22:43;;;;;;;;;;;;;;;;;;2105400;28;19924;-79
2023/08/15 02:24:04;;;;;;;;;;;;;;;;;;2106247;28;19912;-79
2023/08/15 02:25:24;;;;;;;;;;;;;;;;;;2098481;28;19923;-79
2023/08/15 02:26:45;;;;;;;;;;;;;;;;;;2098938;28;19908;-79
2023/08/15 02:28:07;;;;;;;;;;;;;;;;;;2099016;28;20363;-80
2023/08/15 02:29:27;;;;;;;;;;;;;;;;;;2098876;28;20308;-80
2023/08/15 02:30:48;;;;;;;;;;;;;;;;;;2088807;28;19917;-79
2023/08/15 02:32:09;;;;;;;;;;;;;;;;;;2093796;28;19992;-80
2023/08/15 02:33:30;;;;;;;;;;;;;;;;;;2098321;28;19939;-79
2023/08/15 02:34:51;;;;;;;;;;;;;;;;;;2098129;28;20368;-79
2023/08/15 02:36:12;;;;;;;;;;;;;;;;;;2097682;28;19935;-79
2023/08/15 02:37:34;;;;;;;;;;;;;;;;;;2098851;28;19908;-79
2023/08/15 02:38:55;;;;;;;;;;;;;;;;;;2098048;28;19912;-79
2023/08/15 02:40:15;;;;;;;;;;;;;;;;;;2090118;28;19916;-79
2023/08/15 02:41:36;;;;;;;;;;;;;;;;;;2103175;28;19916;-79
2023/08/15 02:42:57;;;;;;;;;;;;;;;;;;2100044;28;19921;-79
2023/08/15 02:44:17;;;;;;;;;;;;;;;;;;2090036;28;20338;-79
2023/08/15 02:45:38;;;;;;;;;;;;;;;;;;2096790;28;20308;-79
2023/08/15 02:46:59;;;;;;;;;;;;;;;;;;2093587;28;20101;-79
2023/08/15 02:48:20;;;;;;;;;;;;;;;;;;2092088;28;19908;-79
2023/08/15 02:49:41;;;;;;;;;;;;;;;;;;2083472;28;19939;-79
2023/08/15 02:51:01;;;;;;;;;;;;;;;;;;2090927;28;19928;-79
2023/08/15 02:52:22;;;;;;;;;;;;;;;;;;2089056;28;19920;-79
2023/08/15 02:53:43;;;;;;;;;;;;;;;;;;2089882;28;19909;-79
2023/08/15 02:55:03;;;;;;;;;;;;;;;;;;2090322;28;19916;-79
2023/08/15 02:56:24;;;;;;;;;;;;;;;;;;2098514;28;19916;-80
2023/08/15 02:57:45;;;;;;;;;;;;;;;;;;2089459;28;19908;-80
2023/08/15 02:59:05;;;;;;;;;;;;;;;;;;2095111;28;20430;-80
2023/08/15 03:00:26;;;;;;;;;;;;;;;;;;2098471;28;19917;-79
2023/08/15 03:01:47;;;;;;;;;;;;;;;;;;2097947;28;19909;-80
2023/08/15 03:03:08;;;;;;;;;;;;;;;;;;2088423;28;19928;-78
2023/08/15 03:04:29;;;;;;;;;;;;;;;;;;2089117;28;20327;-80
2023/08/15 03:05:50;;;;;;;;;;;;;;;;;;2082169;28;19909;-80
2023/08/15 03:07:11;;;;;;;;;;;;;;;;;;2076138;28;20370;-76
2023/08/15 03:08:31;;;;;;;;;;;;;;;;;;2078682;28;19910;-76
2023/08/15 03:09:52;;;;;;;;;;;;;;;;;;2088150;28;19912;-76
2023/08/15 03:11:13;;;;;;;;;;;;;;;;;;2083438;28;19909;-76
2023/08/15 03:12:33;;;;;;;;;;;;;;;;;;2093170;28;19913;-76
2023/08/15 03:13:54;;;;;;;;;;;;;;;;;;2083289;28;19909;-76
2023/08/15 03:15:15;;;;;;;;;;;;;;;;;;2087411;28;19916;-76
2023/08/15 03:16:35;;;;;;;;;;;;;;;;;;2090454;28;20260;-76
2023/08/15 03:17:57;;;;;;;;;;;;;;;;;;2088751;28;19913;-76
2023/08/15 03:19:17;;;;;;;;;;;;;;;;;;2082745;28;19913;-76
2023/08/15 03:20:38;;;;;;;;;;;;;;;;;;2086604;28;19920;-75
2023/08/15 03:21:59;;;;;;;;;;;;;;;;;;2088875;28;19909;-76
2023/08/15 03:23:19;;;;;;;;;;;;;;;;;;2096849;28;19917;-76
2023/08/15 03:24:40;;;;;;;;;;;;;;;;;;2092816;28;19913;-76
2023/08/15 03:26:01;;;;;;;;;;;;;;;;;;2089972;28;19909;-76
2023/08/15 03:27:21;;;;;;;;;;;;;;;;;;2081607;28;19916;-76
2023/08/15 03:28:42;;;;;;;;;;;;;;;;;;2087331;28;19916;-76
2023/08/15 03:30:03;;;;;;;;;;;;;;;;;;2096562;28;19919;-76
2023/08/15 03:31:23;;;;;;;;;;;;;;;;;;2091193;28;19909;-76
2023/08/15 03:32:44;;;;;;;;;;;;;;;;;;2095028;28;19920;-75
2023/08/15 03:34:05;;;;;;;;;;;;;;;;;;2089301;28;20004;-76
2023/08/15 03:35:26;;;;;;;;;;;;;;;;;;2094967;28;20352;-76
2023/08/15 03:36:46;;;;;;;;;;;;;;;;;;2098618;28;19912;-76
2023/08/15 03:38:07;;;;;;;;;;;;;;;;;;2089658;28;20237;-76
2023/08/15 03:39:28;;;;;;;;;;;;;;;;;;2087690;28;19908;-76
2023/08/15 03:40:49;;;;;;;;;;;;;;;;;;2080370;28;20377;-76
2023/08/15 03:42:10;;;;;;;;;;;;;;;;;;2087049;28;19920;-76
2023/08/15 03:43:31;;;;;;;;;;;;;;;;;;2090039;28;19920;-76
2023/08/15 03:44:51;;;;;;;;;;;;;;;;;;2088968;28;19916;-76
2023/08/15 03:46:12;;;;;;;;;;;;;;;;;;2085973;28;19909;-74
2023/08/15 03:47:33;;;;;;;;;;;;;;;;;;2086126;28;19943;-74
2023/08/15 03:48:54;;;;;;;;;;;;;;;;;;2103022;28;19913;-74
2023/08/15 03:50:14;;;;;;;;;;;;;;;;;;2094009;28;20280;-75
2023/08/15 03:51:35;;;;;;;;;;;;;;;;;;2085562;28;20046;-74
2023/08/15 03:52:56;;;;;;;;;;;;;;;;;;2086146;28;20364;-74
2023/08/15 03:54:16;;;;;;;;;;;;;;;;;;2095940;28;19919;-74
2023/08/15 03:55:37;;;;;;;;;;;;;;;;;;2098252;28;19912;-75
2023/08/15 03:56:58;;;;;;;;;;;;;;;;;;2102106;28;19922;-74
2023/08/15 03:58:20;;;;;;;;;;;;;;;;;;2105731;28;20205;-74
2023/08/15 03:59:41;;;;;;;;;;;;;;;;;;2106111;28;19920;-74
2023/08/15 04:01:01;;;;;;;;;;;;;;;;;;2095008;28;19984;-74
2023/08/15 04:02:22;;;;;;;;;;;;;;;;;;2088523;28;19916;-75
2023/08/15 04:03:43;;;;;;;;;;;;;;;;;;2089508;28;20280;-75
2023/08/15 04:05:03;;;;;;;;;;;;;;;;;;2089588;28;19916;-75
2023/08/15 04:06:24;;;;;;;;;;;;;;;;;;2089691;28;19947;-74
2023/08/15 04:07:45;;;;;;;;;;;;;;;;;;2097101;28;19966;-74
2023/08/15 04:09:06;;;;;;;;;;;;;;;;;;2092868;28;19916;-74
2023/08/15 04:10:26;;;;;;;;;;;;;;;;;;2097781;28;19916;-74
2023/08/15 04:11:47;;;;;;;;;;;;;;;;;;2084610;28;20424;-74
2023/08/15 04:13:08;;;;;;;;;;;;;;;;;;2086815;28;19916;-74
2023/08/15 04:14:29;;;;;;;;;;;;;;;;;;2075809;28;20383;-74
2023/08/15 04:15:49;;;;;;;;;;;;;;;;;;2086543;28;20023;-74
2023/08/15 04:17:10;;;;;;;;;;;;;;;;;;2082923;28;20707;-75
2023/08/15 04:18:33;;;;;;;;;;;;;;;;;;2104004;28;19916;-74
2023/08/15 04:19:53;;;;;;;;;;;;;;;;;;2100670;28;19908;-75
2023/08/15 04:21:14;;;;;;;;;;;;;;;;;;2084137;28;20364;-74
2023/08/15 04:22:35;;;;;;;;;;;;;;;;;;2082399;28;19909;-75
2023/08/15 04:23:55;;;;;;;;;;;;;;;;;;2094941;28;19913;-74
2023/08/15 04:25:16;;;;;;;;;;;;;;;;;;2081565;28;20430;-74
2023/08/15 04:26:37;;;;;;;;;;;;;;;;;;2088032;28;19912;-74
2023/08/15 04:27:57;;;;;;;;;;;;;;;;;;2075532;28;20365;-75
2023/08/15 04:29:18;;;;;;;;;;;;;;;;;;2078628;28;19944;-74
2023/08/15 04:30:39;;;;;;;;;;;;;;;;;;2081601;28;19920;-74
2023/08/15 04:32:00;;;;;;;;;;;;;;;;;;2094843;28;19908;-74
2023/08/15 04:33:21;;;;;;;;;;;;;;;;;;2091003;28;20380;-74
2023/08/15 04:34:42;;;;;;;;;;;;;;;;;;2086537;28;19909;-74
2023/08/15 04:36:02;;;;;;;;;;;;;;;;;;2094098;28;19966;-75
2023/08/15 04:37:23;;;;;;;;;;;;;;;;;;2104859;28;20381;-74
2023/08/15 04:38:44;;;;;;;;;;;;;;;;;;2100147;28;19916;-75
2023/08/15 04:40:05;;;;;;;;;;;;;;;;;;2088356;28;19909;-75
2023/08/15 04:41:25;;;;;;;;;;;;;;;;;;2094353;28;19908;-75
2023/08/15 04:42:46;;;;;;;;;;;;;;;;;;2098040;28;19935;-74
2023/08/15 04:44:07;;;;;;;;;;;;;;;;;;2084469;28;19960;-74
2023/08/15 04:45:27;;;;;;;;;;;;;;;;;;2094531;28;19909;-74
2023/08/15 04:46:48;;;;;;;;;;;;;;;;;;2093191;28;20364;-74
2023/08/15 04:48:09;;;;;;;;;;;;;;;;;;2099070;28;19916;-74
2023/08/15 04:49:30;;;;;;;;;;;;;;;;;;2098069;28;19912;-75
2023/08/15 04:50:51;;;;;;;;;;;;;;;;;;2092369;28;19915;-74
2023/08/15 04:52:11;;;;;;;;;;;;;;;;;;2091710;28;19909;-75
2023/08/15 04:53:32;;;;;;;;;;;;;;;;;;2105860;28;20367;-74
2023/08/15 04:54:53;;;;;;;;;;;;;;;;;;2094782;28;20363;-74
2023/08/15 04:56:13;;;;;;;;;;;;;;;;;;2104130;28;20359;-74
2023/08/15 04:57:34;;;;;;;;;;;;;;;;;;2090509;28;19909;-74
2023/08/15 04:58:55;;;;;;;;;;;;;;;;;;2092472;28;19916;-74
2023/08/15 05:00:19;;;;;;;;;;;;;;;;;;2083000;28;19909;-75
2023/08/15 05:01:39;;;;;;;;;;;;;;;;;;2088398;28;19916;-75
2023/08/15 05:03:00;;;;;;;;;;;;;;;;;;2082404;28;19925;-75
2023/08/15 05:04:21;;;;;;;;;;;;;;;;;;2088270;28;20313;-75
2023/08/15 05:05:41;;;;;;;;;;;;;;;;;;2081407;28;19913;-75
2023/08/15 05:07:02;;;;;;;;;;;;;;;;;;2088465;28;19909;-75
2023/08/15 05:08:23;;;;;;;;;;;;;;;;;;2082095;28;19909;-74
2023/08/15 05:09:44;;;;;;;;;;;;;;;;;;2095009;28;20420;-74
2023/08/15 05:11:05;;;;;;;;;;;;;;;;;;2092953;28;19924;-74
2023/08/15 05:12:26;;;;;;;;;;;;;;;;;;2081490;28;19917;-75
2023/08/15 05:13:46;;;;;;;;;;;;;;;;;;2079870;28;19929;-73
2023/08/15 05:15:07;;;;;;;;;;;;;;;;;;2083075;28;19920;-75
2023/08/15 05:16:28;;;;;;;;;;;;;;;;;;2082904;28;19916;-75
2023/08/15 05:17:50;;;;;;;;;;;;;;;;;;2096721;28;20333;-74
2023/08/15 05:19:10;;;;;;;;;;;;;;;;;;2092375;28;20372;-74
2023/08/15 05:20:32;;;;;;;;;;;;;;;;;;2097919;28;19912;-75
2023/08/15 05:21:54;;;;;;;;;;;;;;;;;;2083913;28;19909;-74
2023/08/15 05:23:15;;;;;;;;;;;;;;;;;;2086209;28;20419;-74
2023/08/15 05:24:35;;;;;;;;;;;;;;;;;;2100445;28;19910;-74
2023/08/15 05:25:56;;;;;;;;;;;;;;;;;;2099992;28;20314;-75
2023/08/15 05:27:17;;;;;;;;;;;;;;;;;;2097777;28;19968;-75
2023/08/15 05:28:38;;;;;;;;;;;;;;;;;;2098105;28;19932;-74
2023/08/15 05:29:59;;;;;;;;;;;;;;;;;;2090623;28;20351;-74
2023/08/15 05:31:19;;;;;;;;;;;;;;;;;;2095498;28;20016;-75
2023/08/15 05:32:40;;;;;;;;;;;;;;;;;;2089613;28;19916;-75
2023/08/15 05:34:01;;;;;;;;;;;;;;;;;;2094740;28;20352;-75
2023/08/15 05:35:21;;;;;;;;;;;;;;;;;;2089999;28;19939;-74
2023/08/15 05:36:42;;;;;;;;;;;;;;;;;;2096854;28;19908;-75
2023/08/15 05:38:03;;;;;;;;;;;;;;;;;;2090116;28;19928;-75
2023/08/15 05:39:24;;;;;;;;;;;;;;;;;;2088983;28;19916;-74
2023/08/15 05:40:44;;;;;;;;;;;;;;;;;;2082061;28;19909;-74
2023/08/15 05:42:05;;;;;;;;;;;;;;;;;;2087296;28;19909;-74
2023/08/15 05:43:26;;;;;;;;;;;;;;;;;;2076902;28;19921;-75
2023/08/15 05:44:46;;;;;;;;;;;;;;;;;;2095966;28;19909;-74
2023/08/15 05:46:07;;;;;;;;;;;;;;;;;;2084972;28;20297;-74
2023/08/15 05:47:28;;;;;;;;;;;;;;;;;;2091702;28;19913;-73
2023/08/15 05:48:48;;;;;;;;;;;;;;;;;;2089441;28;20340;-73
2023/08/15 05:50:09;;;;;;;;;;;;;;;;;;2089141;28;19913;-75
2023/08/15 05:51:30;;;;;;;;;;;;;;;;;;2091425;28;19978;-74
2023/08/15 05:52:51;;;;;;;;;;;;;;;;;;2089329;28;19909;-73
2023/08/15 05:54:11;;;;;;;;;;;;;;;;;;2088106;28;19928;-74
2023/08/15 05:55:32;;;;;;;;;;;;;;;;;;2099149;28;19982;-74
2023/08/15 05:56:53;;;;;;;;;;;;;;;;;;2098444;28;19943;-74
2023/08/15 05:58:13;;;;;;;;;;;;;;;;;;2099234;28;19912;-74
2023/08/15 05:59:34;;;;;;;;;;;;;;;;;;2089581;28;19920;-74
2023/08/15 06:00:55;;;;;;;;;;;;;;;;;;2096076;28;19908;-75
2023/08/15 06:02:15;;;;;;;;;;;;;;;;;;2098119;28;19970;-74
2023/08/15 06:03:36;;;;;;;;;;;;;;;;;;2089582;28;19913;-74
2023/08/15 06:04:57;;;;;;;;;;;;;;;;;;2094990;28;19919;-74
2023/08/15 06:06:18;;;;;;;;;;;;;;;;;;2089575;28;20360;-75
2023/08/15 06:07:40;;;;;;;;;;;;;;;;;;2094947;28;19928;-74
2023/08/15 06:09:01;;;;;;;;;;;;;;;;;;2081182;28;19917;-75
2023/08/15 06:10:22;;;;;;;;;;;;;;;;;;2087032;28;20210;-75
2023/08/15 06:11:43;;;;;;;;;;;;;;;;;;2089510;28;19923;-74
2023/08/15 06:13:03;;;;;;;;;;;;;;;;;;2101229;28;20327;-75
2023/08/15 06:14:24;;;;;;;;;;;;;;;;;;2100978;28;19915;-74
2023/08/15 06:15:45;;;;;;;;;;;;;;;;;;2097344;28;19908;-75
2023/08/15 06:17:05;;;;;;;;;;;;;;;;;;2094818;28;19912;-74
2023/08/15 06:18:26;;;;;;;;;;;;;;;;;;2103624;28;19947;-74
2023/08/15 06:19:47;;;;;;;;;;;;;;;;;;2105991;28;20275;-75
2023/08/15 06:21:07;;;;;;;;;;;;;;;;;;2111435;28;19916;-75
2023/08/15 06:22:28;;;;;;;;;;;;;;;;;;2101917;28;20277;-74
2023/08/15 06:23:49;;;;;;;;;;;;;;;;;;2098221;28;19923;-74
2023/08/15 06:25:09;;;;;;;;;;;;;;;;;;2099093;28;19915;-75
2023/08/15 06:26:31;;;;;;;;;;;;;;;;;;2099043;28;20347;-74
2023/08/15 06:27:52;;;;;;;;;;;;;;;;;;2098446;28;19908;-74
2023/08/15 06:29:12;;;;;;;;;;;;;;;;;;2088983;28;19916;-74
2023/08/15 06:30:33;;;;;;;;;;;;;;;;;;2094883;28;19920;-74
2023/08/15 06:31:54;;;;;;;;;;;;;;;;;;2088226;28;19909;-75
2023/08/15 06:33:14;;;;;;;;;;;;;;;;;;2095652;28;19916;-74
2023/08/15 06:34:35;;;;;;;;;;;;;;;;;;2107496;28;19919;-73
2023/08/15 06:35:56;;;;;;;;;;;;;;;;;;2102075;28;20360;-74
2023/08/15 06:37:16;;;;;;;;;;;;;;;;;;2106865;28;19908;-74
2023/08/15 06:38:37;;;;;;;;;;;;;;;;;;2102047;28;20404;-75
2023/08/15 06:39:58;;;;;;;;;;;;;;;;;;2081199;28;19913;-74
2023/08/15 06:41:18;;;;;;;;;;;;;;;;;;2087759;28;20360;-74
2023/08/15 06:42:39;;;;;;;;;;;;;;;;;;2090350;28;19909;-74
2023/08/15 06:44:00;;;;;;;;;;;;;;;;;;2102882;28;19979;-74
2023/08/15 06:45:21;;;;;;;;;;;;;;;;;;2091673;28;19916;-74
2023/08/15 06:46:41;;;;;;;;;;;;;;;;;;2101288;28;19919;-74
2023/08/15 06:48:05;;;;;;;;;;;;;;;;;;2089104;28;20437;-75
2023/08/15 06:49:26;;;;;;;;;;;;;;;;;;2089811;28;19909;-74
2023/08/15 06:50:46;;;;;;;;;;;;;;;;;;2096308;28;19919;-74
2023/08/15 06:52:07;;;;;;;;;;;;;;;;;;2088907;28;19975;-75
2023/08/15 06:53:28;;;;;;;;;;;;;;;;;;2094472;28;20303;-75
2023/08/15 06:54:49;;;;;;;;;;;;;;;;;;2098722;28;19909;-74
2023/08/15 06:56:10;;;;;;;;;;;;;;;;;;2106929;28;19915;-74
2023/08/15 06:57:30;;;;;;;;;;;;;;;;;;2092124;28;19913;-74
2023/08/15 06:58:51;;;;;;;;;;;;;;;;;;2090563;28;20252;-75
2023/08/15 07:00:12;;;;;;;;;;;;;;;;;;2091259;28;19908;-75
2023/08/15 07:01:32;;;;;;;;;;;;;;;;;;2091064;28;19913;-74
2023/08/15 07:02:53;;;;;;;;;;;;;;;;;;2081735;28;19909;-74
2023/08/15 07:04:14;;;;;;;;;;;;;;;;;;2083224;28;20277;-76
2023/08/15 07:05:34;;;;;;;;;;;;;;;;;;2090121;28;19909;-74
2023/08/15 07:06:57;;;;;;;;;;;;;;;;;;2089361;28;20439;-74
2023/08/15 07:08:17;;;;;;;;;;;;;;;;;;2090362;28;19974;-75
2023/08/15 07:09:38;;;;;;;;;;;;;;;;;;2096627;28;19920;-74
2023/08/15 07:10:59;;;;;;;;;;;;;;;;;;2090263;28;19913;-74
2023/08/15 07:12:20;;;;;;;;;;;;;;;;;;2095841;28;20364;-74
2023/08/15 07:13:40;;;;;;;;;;;;;;;;;;2096394;28;19912;-75
2023/08/15 07:15:01;;;;;;;;;;;;;;;;;;2105740;28;19908;-75
2023/08/15 07:16:23;;;;;;;;;;;;;;;;;;2095279;28;19935;-74
2023/08/15 07:17:44;;;;;;;;;;;;;;;;;;2094910;28;19915;-75
2023/08/15 07:19:05;;;;;;;;;;;;;;;;;;2101983;28;19912;-76
2023/08/15 07:20:25;;;;;;;;;;;;;;;;;;2104700;28;19935;-75
2023/08/15 07:21:46;;;;;;;;;;;;;;;;;;2106012;28;19931;-74
2023/08/15 07:23:07;;;;;;;;;;;;;;;;;;2101475;28;19908;-75
2023/08/15 07:24:28;;;;;;;;;;;;;;;;;;2097729;28;20276;-75
2023/08/15 07:25:49;;;;;;;;;;;;;;;;;;2096763;28;19909;-74
2023/08/15 07:27:09;;;;;;;;;;;;;;;;;;2091768;28;19994;-75
2023/08/15 07:28:30;;;;;;;;;;;;;;;;;;2097313;28;19931;-74
2023/08/15 07:29:51;;;;;;;;;;;;;;;;;;2091999;28;19946;-74
2023/08/15 07:31:11;;;;;;;;;;;;;;;;;;2097492;28;19919;-74
2023/08/15 07:32:32;;;;;;;;;;;;;;;;;;2091086;28;20292;-74
2023/08/15 07:33:53;;;;;;;;;;;;;;;;;;2088355;28;19912;-74
2023/08/15 07:35:13;;;;;;;;;;;;;;;;;;2100963;28;19927;-74
2023/08/15 07:36:34;;;;;;;;;;;;;;;;;;2091741;28;19913;-74
2023/08/15 07:37:55;;;;;;;;;;;;;;;;;;2089606;28;19912;-74
2023/08/15 07:39:15;;;;;;;;;;;;;;;;;;2086190;28;19909;-74
2023/08/15 07:40:36;;;;;;;;;;;;;;;;;;2094374;28;20303;-75
2023/08/15 07:41:57;;;;;;;;;;;;;;;;;;2089242;28;19916;-74
2023/08/15 07:43:18;;;;;;;;;;;;;;;;;;2094907;28;19913;-75
2023/08/15 07:44:38;;;;;;;;;;;;;;;;;;2079746;28;19921;-75
2023/08/15 07:45:59;;;;;;;;;;;;;;;;;;2087626;28;20228;-76
2023/08/15 07:47:20;;;;;;;;;;;;;;;;;;2093465;28;19913;-75
2023/08/15 07:48:42;;;;;;;;;;;;;;;;;;2096866;28;19931;-75
2023/08/15 07:50:03;;;;;;;;;;;;;;;;;;2104408;28;20180;-75
2023/08/15 07:51:24;;;;;;;;;;;;;;;;;;2100153;28;20548;-74
2023/08/15 07:52:45;;;;;;;;;;;;;;;;;;2098099;28;20401;-75
2023/08/15 07:54:06;;;;;;;;;;;;;;;;;;2106061;28;19938;-74
2023/08/15 07:55:27;;;;;;;;;;;;;;;;;;2091869;28;19931;-75
2023/08/15 07:56:48;;;;;;;;;;;;;;;;;;2097016;28;19924;-75
2023/08/15 07:58:08;;;;;;;;;;;;;;;;;;2092496;28;19927;-75
2023/08/15 07:59:29;;;;;;;;;;;;;;;;;;2080834;28;19910;-75
2023/08/15 08:00:50;;;;;;;;;;;;;;;;;;2083067;28;20383;-74
2023/08/15 08:02:10;;;;;;;;;;;;;;;;;;2072151;28;19910;-74
2023/08/15 08:03:32;;;;;;;;;;;;;;;;;;2077655;28;19920;-76
2023/08/15 08:04:52;;;;;;;;;;;;;;;;;;2081817;28;19964;-75
2023/08/15 08:06:13;;;;;;;;;;;;;;;;;;2081139;28;19916;-74
2023/08/15 08:07:34;;;;;;;;;;;;;;;;;;2071580;28;20289;-74
2023/08/15 08:08:54;;;;;;;;;;;;;;;;;;2079260;28;19909;-75
2023/08/15 08:10:15;;;;;;;;;;;;;;;;;;2080475;28;19909;-74
2023/08/15 08:11:36;;;;;;;;;;;;;;;;;;2088388;28;19916;-74
2023/08/15 08:12:57;;;;;;;;;;;;;;;;;;2074749;28;19914;-75
2023/08/15 08:14:17;;;;;;;;;;;;;;;;;;2085188;28;19917;-74
2023/08/15 08:15:38;;;;;;;;;;;;;;;;;;2083879;28;19921;-75
2023/08/15 08:16:59;;;;;;;;;;;;;;;;;;2104001;28;19912;-74
2023/08/15 08:18:20;;;;;;;;;;;;;;;;;;2099646;28;19908;-74
2023/08/15 08:19:40;;;;;;;;;;;;;;;;;;2097760;28;19909;-75
2023/08/15 08:21:02;;;;;;;;;;;;;;;;;;2089094;28;19991;-74
2023/08/15 08:22:23;;;;;;;;;;;;;;;;;;2095395;28;19912;-75
2023/08/15 08:23:43;;;;;;;;;;;;;;;;;;2095353;28;20367;-75
2023/08/15 08:25:04;;;;;;;;;;;;;;;;;;2083387;28;19909;-75
2023/08/15 08:26:25;;;;;;;;;;;;;;;;;;2085891;28;19909;-75
2023/08/15 08:27:46;;;;;;;;;;;;;;;;;;2079267;28;19909;-74
2023/08/15 08:29:06;;;;;;;;;;;;;;;;;;2085876;28;19909;-75
2023/08/15 08:30:27;;;;;;;;;;;;;;;;;;2081120;28;19916;-74
2023/08/15 08:31:48;;;;;;;;;;;;;;;;;;2084887;28;19913;-74
2023/08/15 08:33:09;;;;;;;;;;;;;;;;;;2083221;28;19917;-75
2023/08/15 08:34:30;;;;;;;;;;;;;;;;;;2087472;28;19925;-75
2023/08/15 08:35:50;;;;;;;;;;;;;;;;;;2075362;28;19909;-74
2023/08/15 08:37:11;;;;;;;;;;;;;;;;;;2086093;28;19916;-75
2023/08/15 08:38:32;;;;;;;;;;;;;;;;;;2076651;28;20266;-75
2023/08/15 08:39:52;;;;;;;;;;;;;;;;;;2086015;28;19913;-75
2023/08/15 08:41:13;;;;;;;;;;;;;;;;;;2080066;28;19916;-75
2023/08/15 08:42:34;;;;;;;;;;;;;;;;;;2078689;28;19909;-75
2023/08/15 08:43:54;;;;;;;;;;;;;;;;;;2091659;28;20391;-75
2023/08/15 08:45:15;;;;;;;;;;;;;;;;;;2091180;28;19916;-74
2023/08/15 08:46:36;;;;;;;;;;;;;;;;;;2085702;28;19951;-74
2023/08/15 08:47:57;;;;;;;;;;;;;;;;;;2079142;28;19909;-75
2023/08/15 08:49:17;;;;;;;;;;;;;;;;;;2086301;28;19909;-75
2023/08/15 08:50:38;;;;;;;;;;;;;;;;;;2079482;28;19917;-75
2023/08/15 08:51:59;;;;;;;;;;;;;;;;;;2085327;28;19916;-74
2023/08/15 08:53:19;;;;;;;;;;;;;;;;;;2087932;28;19909;-74
2023/08/15 08:54:40;;;;;;;;;;;;;;;;;;2078582;28;19917;-76
2023/08/15 08:56:01;;;;;;;;;;;;;;;;;;2086123;28;19916;-75
2023/08/15 08:57:22;;;;;;;;;;;;;;;;;;2096734;28;19927;-74
2023/08/15 08:58:42;;;;;;;;;;;;;;;;;;2098583;28;20053;-75
2023/08/15 09:00:09;;;;;;;;;;;;;;;;;;2098563;28;19908;-74
2023/08/15 09:01:31;;;;;;;;;;;;;;;;;;2106002;28;19912;-74
2023/08/15 09:02:52;;;;;;;;;;;;;;;;;;2099490;28;19908;-75
2023/08/15 09:04:13;;;;;;;;;;;;;;;;;;2087999;28;19913;-74
2023/08/15 09:05:34;;;;;;;;;;;;;;;;;;2101362;28;20352;-75
2023/08/15 09:06:54;;;;;;;;;;;;;;;;;;2083163;28;20353;-74
2023/08/15 09:08:15;;;;;;;;;;;;;;;;;;2085854;28;19936;-75
2023/08/15 09:09:36;;;;;;;;;;;;;;;;;;2097651;28;19916;-74
2023/08/15 09:10:56;;;;;;;;;;;;;;;;;;2083670;28;19913;-74